Time,TemperatureF,DewpointF,PressureIn,WindDirection,WindDirectionDegrees,WindSpeedMPH,WindSpeedGustMPH,Humidity,HourlyPrecipIn,Conditions,Clouds,dailyrainin,SoftwareType,DateUTC
2013-10-31 00:23:00,67.0,57.0,29.92,SSW,209,1.0,10.0,71,0.00,,,0.00,,2013-10-31 05:23:00,
2013-10-31 00:52:00,67.0,58.0,29.91,SSW,196,0.0,5.0,72,0.00,,,0.00,,2013-10-31 05:52:00,
2013-10-31 01:12:00,67.0,58.0,29.91,SSW,195,1.0,8.0,72,0.00,,,0.00,,2013-10-31 06:12:00,
2013-10-31 01:22:00,67.0,58.0,29.90,SE,142,0.0,3.0,72,0.00,,,0.00,,2013-10-31 06:22:00,
2013-10-31 01:53:00,67.0,58.0,29.89,South,169,0.0,8.0,73,0.00,,,0.00,,2013-10-31 06:53:00,
2013-10-31 02:01:00,67.0,58.0,29.89,South,169,0.0,8.0,73,0.00,,,0.00,,2013-10-31 07:01:00,
2013-10-31 02:11:00,67.0,58.0,29.89,South,169,0.0,8.0,73,0.00,,,0.00,,2013-10-31 07:11:00,
2013-10-31 02:21:00,66.0,58.0,29.89,South,181,1.0,7.0,75,0.00,,,0.00,,2013-10-31 07:21:00,
2013-10-31 02:52:00,65.0,59.0,29.88,SSE,154,0.0,3.0,81,0.00,,,0.00,,2013-10-31 07:52:00,
2013-10-31 03:12:00,64.0,58.0,29.88,South,172,0.0,3.0,82,0.00,,,0.00,,2013-10-31 08:12:00,
2013-10-31 03:22:00,64.0,58.0,29.88,SE,143,0.0,7.0,82,0.00,,,0.00,,2013-10-31 08:22:00,
2013-10-31 03:42:00,65.0,59.0,29.87,South,179,0.0,3.0,82,0.00,,,0.00,,2013-10-31 08:42:00,
2013-10-31 03:52:00,65.0,59.0,29.86,South,179,0.0,3.0,82,0.00,,,0.00,,2013-10-31 08:52:00,
2013-10-31 04:22:00,64.0,58.0,29.86,WSW,238,0.0,2.0,82,0.00,,,0.00,,2013-10-31 09:22:00,
2013-10-31 04:43:00,64.0,59.0,29.84,SSE,153,0.0,6.0,84,0.00,,,0.00,,2013-10-31 09:43:00,
2013-10-31 04:53:00,64.0,59.0,29.83,SE,133,0.0,5.0,85,0.00,,,0.00,,2013-10-31 09:53:00,
2013-10-31 05:13:00,64.0,60.0,29.83,SSE,160,0.0,4.0,86,0.00,,,0.00,,2013-10-31 10:13:00,
2013-10-31 05:23:00,64.0,60.0,29.83,SW,217,1.0,12.0,87,0.00,,,0.00,,2013-10-31 10:23:00,
2013-10-31 05:53:00,64.0,60.0,29.83,SSW,211,1.0,10.0,86,0.00,,,0.00,,2013-10-31 10:53:00,
2013-10-31 06:21:00,64.0,59.0,29.81,South,176,1.0,11.0,85,0.00,,,0.00,,2013-10-31 11:21:00,
2013-10-31 06:52:00,64.0,57.0,29.80,South,170,2.0,12.0,79,0.00,,,0.00,,2013-10-31 11:52:00,
2013-10-31 07:12:00,64.0,56.0,29.79,SSW,206,4.0,14.0,76,0.00,,,0.00,,2013-10-31 12:12:00,
2013-10-31 07:21:00,63.0,56.0,29.76,SSE,157,4.0,20.0,77,0.00,,,0.00,,2013-10-31 12:21:00,
2013-10-31 07:52:00,62.0,57.0,29.75,SSE,167,2.0,16.0,85,0.00,,,0.00,,2013-10-31 12:52:00,
2013-10-31 08:11:00,61.0,57.0,29.74,SE,139,2.0,11.0,88,0.00,,,0.01,,2013-10-31 13:11:00,
2013-10-31 08:22:00,61.0,58.0,29.73,SE,138,2.0,11.0,90,0.00,,,0.01,,2013-10-31 13:22:00,
2013-10-31 08:52:00,62.0,59.0,29.71,SSE,156,3.0,26.0,91,0.00,,,0.02,,2013-10-31 13:52:00,
2013-10-31 09:21:00,62.0,60.0,29.68,SSE,157,2.0,21.0,92,0.00,,,0.02,,2013-10-31 14:21:00,
2013-10-31 09:52:00,63.0,60.0,29.67,South,183,4.0,22.0,91,0.00,,,0.02,,2013-10-31 14:52:00,
2013-10-31 10:11:00,64.0,60.0,29.66,South,170,5.0,25.0,88,0.00,,,0.02,,2013-10-31 15:11:00,
2013-10-31 10:22:00,64.0,60.0,29.66,South,170,5.0,25.0,88,0.00,,,0.02,,2013-10-31 15:22:00,
2013-10-31 11:23:00,65.0,62.0,29.63,SSW,200,3.0,14.0,91,0.00,,,0.03,,2013-10-31 16:23:00,
2013-10-31 11:53:00,66.0,64.0,29.61,SSW,196,5.0,17.0,92,0.00,,,0.05,,2013-10-31 16:53:00,
2013-10-31 12:22:00,66.0,64.0,29.61,SSW,209,4.0,18.0,92,0.01,,,0.05,,2013-10-31 17:22:00,
2013-10-31 12:52:00,67.0,65.0,29.59,SW,216,4.0,18.0,92,0.01,,,0.07,,2013-10-31 17:52:00,
2013-10-31 13:21:00,67.0,65.0,29.58,SSW,200,4.0,25.0,93,0.02,,,0.09,,2013-10-31 18:21:00,
2013-10-31 13:52:00,67.0,65.0,29.54,SSW,203,7.0,20.0,93,0.03,,,0.10,,2013-10-31 18:52:00,
2013-10-31 14:21:00,67.0,65.0,29.52,SSW,208,5.0,18.0,92,0.02,,,0.11,,2013-10-31 19:21:00,
2013-10-31 14:52:00,67.0,65.0,29.51,SW,215,4.0,21.0,93,0.01,,,0.12,,2013-10-31 19:52:00,
2013-10-31 15:22:00,67.0,65.0,29.48,SW,219,5.0,21.0,94,0.01,,,0.14,,2013-10-31 20:22:00,
2013-10-31 15:52:00,67.0,65.0,29.44,SSE,157,3.0,13.0,94,0.01,,,0.15,,2013-10-31 20:52:00,
2013-10-31 16:22:00,67.0,66.0,29.43,SSW,197,5.0,24.0,95,0.01,,,0.15,,2013-10-31 21:22:00,
2013-10-31 16:54:00,67.0,66.0,29.45,SW,228,5.0,21.0,95,0.00,,,0.15,,2013-10-31 21:54:00,
2013-10-31 17:24:00,68.0,66.0,29.44,SW,222,6.0,21.0,94,0.00,,,0.17,,2013-10-31 22:24:00,
2013-10-31 17:53:00,68.0,66.0,29.44,SW,227,5.0,19.0,92,0.01,,,0.18,,2013-10-31 22:53:00,
2013-10-31 18:22:00,68.0,65.0,29.44,SW,235,4.0,16.0,89,0.00,,,0.18,,2013-10-31 23:22:00,
2013-10-31 18:54:00,68.0,64.0,29.44,SW,228,5.0,17.0,87,0.00,,,0.18,,2013-10-31 23:54:00,
2013-10-31 19:11:00,68.0,64.0,29.45,SW,229,5.0,21.0,87,0.00,,,0.18,,2013-11-01 00:11:00,
2013-10-31 19:21:00,68.0,64.0,29.45,SW,229,5.0,21.0,87,0.00,,,0.18,,2013-11-01 00:21:00,
2013-10-31 19:52:00,68.0,64.0,29.45,WSW,238,4.0,20.0,88,0.00,,,0.18,,2013-11-01 00:52:00,
2013-10-31 20:22:00,67.0,64.0,29.46,WSW,239,6.0,20.0,91,0.00,,,0.18,,2013-11-01 01:22:00,
2013-10-31 20:52:00,68.0,64.0,29.46,WSW,245,7.0,18.0,88,0.00,,,0.20,,2013-11-01 01:52:00,
2013-10-31 21:22:00,68.0,63.0,29.47,WSW,237,7.0,24.0,84,0.00,,,0.20,,2013-11-01 02:22:00,
2013-10-31 21:52:00,69.0,63.0,29.47,WSW,239,9.0,24.0,80,0.00,,,0.20,,2013-11-01 02:52:00,
2013-10-31 22:54:00,59.0,57.0,29.57,West,271,2.0,11.0,92,0.00,,,0.20,,2013-11-01 03:54:00,
2013-10-31 23:24:00,58.0,56.0,29.58,WNW,283,0.0,3.0,94,0.00,,,0.20,,2013-11-01 04:24:00,
2013-10-31 23:54:00,58.0,57.0,29.59,WNW,282,0.0,7.0,95,0.00,,,0.20,,2013-11-01 04:54:00,